Time;durP1;ratioP1;P1;durP2;ratioP2;P2;SDS_P1;SDS_P2;PMS_P1;PMS_P2;Temp;Humidity;BMP_temperature;BMP_pressure;BME280_temperature;BME280_humidity;BME280_pressure;Samples;Min_cycle;Max_cycle;Signal;HPM_P1;HPM_P2
2022/06/13 00:09:52;;;;;;;8.2;10.8;;;;;;;-133;96.3;65270;;;;
2022/06/13 00:20:52;;;;;;;7.9;10.6;;;;;;;-133;96;65270;;;;
2022/06/13 00:30:52;;;;;;;7.9;10.6;;;;;;;-133;96.6;65270;;;;
2022/06/13 00:40:52;;;;;;;7.9;10.6;;;;;;;-133;99.4;65270;;;;
2022/06/13 00:51:52;;;;;;;10.8;13.3;;;;;;;-133;100;65270;;;;
2022/06/13 01:02:52;;;;;;;10.8;13.3;;;;;;;-133;100;65270;;;;
2022/06/13 01:13:52;;;;;;;10.8;13.3;;;;;;;-133;100;65270;;;;
2022/06/13 01:23:52;;;;;;;11.5;17.6;;;;;;;-133;99.7;65270;;;;
2022/06/13 01:33:52;;;;;;;11.5;17.6;;;;;;;-133;100;65270;;;;
2022/06/13 01:44:52;;;;;;;11.5;17.6;;;;;;;-133;99.5;65270;;;;
2022/06/13 01:55:52;;;;;;;12.7;14.4;;;;;;;-133;100;65270;;;;
2022/06/13 02:06:52;;;;;;;12.7;14.4;;;;;;;-133;100;65280;;;;
2022/06/13 02:17:52;;;;;;;12;13.8;;;;;;;-133;100;65270;;;;
2022/06/13 02:28:52;;;;;;;12;13.8;;;;;;;-133;100;65270;;;;
2022/06/13 02:38:52;;;;;;;12;13.8;;;;;;;-133;100;65270;;;;
2022/06/13 02:49:52;;;;;;;11.3;12.5;;;;;;;-133;100;65270;;;;
2022/06/13 03:00:54;;;;;;;11.3;12.5;;;;;;;-133;100;65270;;;;
2022/06/13 03:10:52;;;;;;;11.3;12.5;;;;;;;-133;100;65270;;;;
2022/06/13 03:21:52;;;;;;;10.6;13.1;;;;;;;-133;100;65280;;;;
2022/06/13 03:31:52;;;;;;;10.6;13.1;;;;;;;-133;100;65270;;;;
2022/06/13 03:42:52;;;;;;;10.6;13.1;;;;;;;-133;100;65280;;;;
2022/06/13 03:52:52;;;;;;;9.6;13.9;;;;;;;-133;100;65270;;;;
2022/06/13 04:02:52;;;;;;;9.6;13.9;;;;;;;-133;100;65270;;;;
2022/06/13 04:12:52;;;;;;;9.6;13.9;;;;;;;-133;100;65270;;;;
2022/06/13 04:22:52;;;;;;;12;14.5;;;;;;;-133;97.9;65260;;;;
2022/06/13 04:33:52;;;;;;;12;14.5;;;;;;;-133;94.3;65270;;;;
2022/06/13 04:44:52;;;;;;;12;14.5;;;;;;;-133;92.1;65260;;;;
2022/06/13 04:54:52;;;;;;;9.9;12;;;;;;;-133;88.6;65250;;;;
2022/06/13 05:05:52;;;;;;;9.9;12;;;;;;;-133;85.6;65250;;;;
2022/06/13 05:15:54;;;;;;;9.9;12;;;;;;;-133;83.8;65250;;;;
2022/06/13 05:25:53;;;;;;;7.9;11.3;;;;;;;-133;82.2;65250;;;;
2022/06/13 05:36:52;;;;;;;7.9;11.3;;;;;;;-133;82.4;65240;;;;
2022/06/13 05:46:52;;;;;;;6.4;10;;;;;;;-133;80.7;65240;;;;
2022/06/13 05:57:52;;;;;;;6.4;10;;;;;;;-133;76.9;65240;;;;
2022/06/13 06:07:52;;;;;;;6.4;10;;;;;;;-133;73.1;65230;;;;
2022/06/13 06:18:52;;;;;;;6.2;10.1;;;;;;;-133;71.1;65230;;;;
2022/06/13 06:28:52;;;;;;;6.2;10.1;;;;;;;-133;68.7;65230;;;;
2022/06/13 06:39:52;;;;;;;6.2;10.1;;;;;;;-133;64.9;65230;;;;
2022/06/13 06:50:52;;;;;;;4;6.8;;;;;;;-133;61.7;65230;;;;
2022/06/13 07:00:52;;;;;;;4;6.8;;;;;;;-133;60.6;65230;;;;
2022/06/13 07:11:53;;;;;;;4;6.8;;;;;;;-133;57.4;65230;;;;
2022/06/13 07:21:53;;;;;;;;;;;;;;;24.6;82.4;98380;;;;
2022/06/13 07:32:52;;;;;;;4.4;8.5;;;;;;;23.2;91.3;98390;;;;
2022/06/13 07:42:52;;;;;;;4.4;8.5;;;;;;;23.4;87.7;98400;;;;
2022/06/13 07:53:52;;;;;;;4.4;8.5;;;;;;;23.3;91.2;98390;;;;
2022/06/13 08:03:52;;;;;;;4.3;8;;;;;;;23.3;90.4;98390;;;;
2022/06/13 08:13:52;;;;;;;4.3;8;;;;;;;23.5;84.8;98390;;;;
2022/06/13 08:23:52;;;;;;;4.3;8;;;;;;;23.9;83.4;98390;;;;
2022/06/13 08:34:52;;;;;;;5.2;10.7;;;;;;;24.2;82.3;98370;;;;
2022/06/13 08:44:52;;;;;;;5.2;10.7;;;;;;;24.9;77.5;98360;;;;
2022/06/13 08:55:52;;;;;;;5.2;10.7;;;;;;;24.7;76.5;98360;;;;
2022/06/13 09:05:52;;;;;;;4;8.3;;;;;;;25.2;76.7;98360;;;;
2022/06/13 09:15:52;;;;;;;4;8.3;;;;;;;25.6;78.1;98350;;;;
2022/06/13 09:26:53;;;;;;;4;8.3;;;;;;;25.6;74.6;98360;;;;
2022/06/13 09:36:52;;;;;;;4.6;8.7;;;;;;;25.1;75.1;98370;;;;
2022/06/13 09:47:52;;;;;;;4.6;8.7;;;;;;;25.1;76.5;98360;;;;
2022/06/13 09:57:52;;;;;;;3.7;8;;;;;;;25;80.3;98360;;;;
2022/06/13 10:07:52;;;;;;;3.7;8;;;;;;;24.6;76.9;98370;;;;
2022/06/13 10:17:52;;;;;;;3.7;8;;;;;;;24.9;77.3;98380;;;;
2022/06/13 10:28:53;;;;;;;2.9;5.7;;;;;;;24.7;75.3;98380;;;;
2022/06/13 10:38:53;;;;;;;2.9;5.7;;;;;;;24.5;76.8;98380;;;;
2022/06/13 10:48:52;;;;;;;2.9;5.7;;;;;;;24.5;76.5;98390;;;;
2022/06/13 10:59:52;;;;;;;2.5;5.6;;;;;;;24.6;77.5;98370;;;;
2022/06/13 11:10:52;;;;;;;2.5;5.6;;;;;;;24;78.2;98380;;;;
2022/06/13 11:31:53;;;;;;;2.7;5.5;;;;;;;22.8;87.7;98350;;;;
2022/06/13 11:41:52;;;;;;;2.7;5.5;;;;;;;24.1;85.2;98350;;;;
2022/06/13 11:53:57;;;;;;;2.7;5.5;;;;;;;24.2;78.7;98350;;;;
2022/06/13 12:02:52;;;;;;;2.8;7.2;;;;;;;24;81.2;98350;;;;
2022/06/13 12:12:52;;;;;;;2.8;7.2;;;;;;;23.1;91.6;98350;;;;
2022/06/13 12:23:52;;;;;;;2.8;7.2;;;;;;;22.7;98.2;98310;;;;
2022/06/13 12:33:52;;;;;;;3.6;6.2;;;;;;;22.9;97.2;98330;;;;
2022/06/13 12:43:52;;;;;;;3.6;6.2;;;;;;;23.1;97.4;98320;;;;
2022/06/13 12:54:53;;;;;;;3.6;6.2;;;;;;;22.7;94.7;98290;;;;
2022/06/13 13:05:52;;;;;;;3.4;9.5;;;;;;;22.8;94.1;98290;;;;
2022/06/13 13:15:52;;;;;;;3.4;9.5;;;;;;;23.1;94.6;98290;;;;
2022/06/13 13:26:53;;;;;;;3.4;9.5;;;;;;;23.4;89;98290;;;;
2022/06/13 13:36:53;;;;;;;3.1;7.9;;;;;;;22.5;91.8;98310;;;;
2022/06/13 13:47:52;;;;;;;3.1;7.9;;;;;;;21.9;96.7;98300;;;;
2022/06/13 13:57:52;;;;;;;2.5;4.7;;;;;;;21.5;100;98300;;;;
2022/06/13 14:07:52;;;;;;;2.5;4.7;;;;;;;20.8;100;98310;;;;
2022/06/13 14:18:53;;;;;;;2.5;4.7;;;;;;;19.9;100;98310;;;;
2022/06/13 14:28:53;;;;;;;3.2;8;;;;;;;18.9;100;98340;;;;
2022/06/13 14:38:53;;;;;;;3.2;8;;;;;;;17.4;100;98340;;;;
2022/06/13 14:49:53;;;;;;;3.2;8;;;;;;;16.7;100;98370;;;;
2022/06/13 14:59:52;;;;;;;2.5;5.7;;;;;;;15.8;100;98420;;;;
2022/06/13 15:09:53;;;;;;;2.5;5.7;;;;;;;15.2;100;98530;;;;
2022/06/13 15:20:53;;;;;;;2.5;5.7;;;;;;;14.6;100;98520;;;;
2022/06/13 15:30:52;;;;;;;2.2;4.2;;;;;;;14.7;100;98500;;;;
2022/06/13 15:40:53;;;;;;;2.2;4.2;;;;;;;14.5;100;98490;;;;
2022/06/13 15:51:53;;;;;;;2.2;4.2;;;;;;;14.6;100;98500;;;;
2022/06/13 16:01:53;;;;;;;2.2;5.2;;;;;;;14.8;100;98510;;;;
2022/06/13 16:11:53;;;;;;;2.2;5.2;;;;;;;14.6;100;98530;;;;
2022/06/13 16:21:53;;;;;;;2.2;5.2;;;;;;;14.8;100;98520;;;;
2022/06/13 16:32:53;;;;;;;2.9;5.2;;;;;;;14.8;100;98530;;;;
2022/06/13 16:43:53;;;;;;;2.9;5.2;;;;;;;15.1;100;98540;;;;
2022/06/13 16:53:53;;;;;;;2.9;5.2;;;;;;;15.3;100;98530;;;;
2022/06/13 17:04:53;;;;;;;3.2;8.9;;;;;;;14.9;100;98530;;;;
2022/06/13 17:14:53;;;;;;;3.2;8.9;;;;;;;15.1;100;98560;;;;
2022/06/13 17:24:53;;;;;;;3.2;8.9;;;;;;;15.2;100;98560;;;;
2022/06/13 17:35:53;;;;;;;3.7;9.4;;;;;;;15.3;100;98560;;;;
2022/06/13 17:46:53;;;;;;;3.7;9.4;;;;;;;15.5;100;98570;;;;
2022/06/13 17:56:53;;;;;;;3.7;9.4;;;;;;;15.9;100;98570;;;;
2022/06/13 18:06:54;;;;;;;3.2;5.4;;;;;;;15.7;100;98580;;;;
2022/06/13 18:16:53;;;;;;;3.2;5.4;;;;;;;15.2;100;98590;;;;
2022/06/13 18:27:53;;;;;;;4.3;8.5;;;;;;;14.9;100;98630;;;;
2022/06/13 18:37:53;;;;;;;4.3;8.5;;;;;;;14.7;100;98630;;;;
2022/06/13 18:48:53;;;;;;;4.3;8.5;;;;;;;14.5;100;98640;;;;
2022/06/13 18:59:53;;;;;;;5.3;8.6;;;;;;;14.6;100;98650;;;;
2022/06/13 19:09:53;;;;;;;5.3;8.6;;;;;;;14.5;100;98670;;;;
2022/06/13 19:19:53;;;;;;;5.3;8.6;;;;;;;14.4;100;98690;;;;
2022/06/13 19:29:53;;;;;;;6.3;9.7;;;;;;;14.4;100;98700;;;;
2022/06/13 19:39:53;;;;;;;6.3;9.7;;;;;;;14.1;100;98710;;;;
2022/06/13 19:50:53;;;;;;;6.3;9.7;;;;;;;14.1;100;98730;;;;
2022/06/13 20:01:54;;;;;;;6.4;9.2;;;;;;;14.1;100;98730;;;;
2022/06/13 20:11:53;;;;;;;6.4;9.2;;;;;;;14.2;100;98760;;;;
2022/06/13 20:22:53;;;;;;;6.4;9.2;;;;;;;13.1;100;98820;;;;
2022/06/13 20:33:53;;;;;;;4.9;7.6;;;;;;;12.4;100;98790;;;;
2022/06/13 20:44:53;;;;;;;4.9;7.6;;;;;;;11.9;100;98740;;;;
2022/06/13 20:54:53;;;;;;;4.9;7.6;;;;;;;11.9;100;98750;;;;
2022/06/13 21:05:53;;;;;;;1.7;4.1;;;;;;;11.7;100;98740;;;;
2022/06/13 21:16:46;;;;;;;1.7;4.1;;;;;;;11.7;100;98750;;;;
2022/06/13 21:26:46;;;;;;;1.7;4.1;;;;;;;11.4;100;98740;;;;
2022/06/13 21:37:46;;;;;;;2.3;4.4;;;;;;;11.3;100;98760;;;;
2022/06/13 21:47:46;;;;;;;2.3;4.4;;;;;;;11;100;98760;;;;
2022/06/13 21:57:46;;;;;;;2.2;4.6;;;;;;;10.8;100;98750;;;;
2022/06/13 22:08:46;;;;;;;2.2;4.6;;;;;;;10.7;100;98740;;;;
2022/06/13 22:18:46;;;;;;;2.2;4.6;;;;;;;10.5;100;98740;;;;
2022/06/13 22:29:46;;;;;;;2.3;6;;;;;;;10.4;100;98730;;;;
2022/06/13 22:40:46;;;;;;;2.3;6;;;;;;;10.3;100;98740;;;;
2022/06/13 22:51:46;;;;;;;2.3;6;;;;;;;10.3;100;98740;;;;
2022/06/13 23:02:46;;;;;;;2.5;5.6;;;;;;;10.3;100;98740;;;;
2022/06/13 23:12:46;;;;;;;2.5;5.6;;;;;;;10.3;100;98760;;;;
2022/06/13 23:22:46;;;;;;;2.5;5.6;;;;;;;10.2;100;98760;;;;
2022/06/13 23:33:46;;;;;;;2.3;5;;;;;;;10.1;100;98760;;;;
2022/06/13 23:44:46;;;;;;;2.3;5;;;;;;;10;100;98760;;;;
2022/06/13 23:54:46;;;;;;;2.3;5;;;;;;;10;100;98770;;;;
